Sumari Climatol˛gic Mensual del mes 2 del any 2008
Les temperatures estan en ║C, la humitat relativa en %
La plutja en l/m^2, y el vent en m/s.
Data T. Mitja T.Max H.T.Max T. Min. H.T. Min. P. Reixiu Sensasiˇ fred Sensasiˇ Xafogor Plutja Vel. Vent Ratxa H. Ratxa Dir. Ratxa Dir. Dominant Pressiˇ Mitja Hum.
1/2/2008 13,5 17,7 16:50 6,9 9:0 1,1 19,1 20,19 0,0 1,12 6,92 13:10:00 SO S 1016,6 43,2
2/2/2008 10,9 17, 15:30 6,8 8:50 2,8 17,2 21,73 1,4 1,14 7,42 10:20:00 S S 1016,7 57,7
3/2/2008 9,9 16,6 15:50 5,6 8:40 5,5 17,1 25,45 0,2 ,88 9,62 17:30:00 SE S 1015,7 74,4
4/2/2008 11,9 14,6 17:0 8,1 23:50 2,7 16,4 21,58 0,0 1,99 13,86 12:10:00 SO SO 1017,4 53,5
5/2/2008 11,4 18,9 16:30 6,4 8:10 2,9 16,4 21,75 0,0 1,73 8,24 12:30:00 S S 1025, 55,9
6/2/2008 12, 18,6 14:0 7,3 8:30 3,3 17,5 22,24 0,0 1,36 7,16 5:30:00 S S 1029,8 55,7
7/2/2008 10,5 17,5 16:0 5,2 7:40 2,9 17,5 21,83 0,0 ,89 3,84 13:50:00 N S 1030,8 59,3
8/2/2008 10,3 15,6 14:50 5,2 8:20 4,1 16,6 23,42 0,0 1,21 7,18 13:00:00 NE E 1029, 65,9
9/2/2008 9,3 13,6 15:50 5,3 23:40 5,9 16,6 26,36 0,0 ,92 7,44 15:50:00 NE E 1028,7 79,7
10/2/2008 7,7 13,2 15:50 4,3 23:50 3,6 15,5 23,53 0,0 ,93 7,22 16:50:00 NE SE 1028, 75,1
11/2/2008 7,7 12,3 15:30 3, 3:20 2,8 14,4 22,38 0,0 1,38 7,88 15:50:00 NE NE 1025,8 71,2
12/2/2008 7,9 10, 13:20 6, 3:10 5,2 16,1 26,04 2,9 ,75 7,14 14:00:00 NE NE 1025,4 83,5
13/2/2008 7,6 9, 14:50 6,3 7:30 5,6 15,6 26,81 10,4 ,86 9,60 16:20:00 NE NE 1026,2 87,3
14/2/2008 9,7 10,9 13:30 7,5 0:0 7,9 13,3 29,36 5,9 2,89 12,74 11:10:00 NE NE 1023,3 88,7
15/2/2008 9, 9,9 3:50 6,7 23:10 7,5 14,2 29,15 11,8 1,98 12,24 12:00:00 N N 1023,7 90,4
16/2/2008 8,3 13,8 13:10 4,7 5:40 4,7 15,5 25,07 0,0 1,08 7,10 17:30:00 NE SO 1028,7 78,6
17/2/2008 7,4 9,8 12:30 3,5 3:50 5,1 15,7 26,20 0,8 ,76 4,60 20:40:00 NE NE 1031,1 85,9
18/2/2008 9,4 10,4 17:50 8,1 3:10 8,3 17, 30,16 17,1 ,83 5,84 19:20:00 N NE 1024,4 92,4
19/2/2008 9,9 10,6 13:30 9,2 6:30 8,7 18,4 30,59 8,3 ,45 3,40 0:40:00 NE N 1019,7 92,5
20/2/2008 11,6 15,4 16:10 9,6 4:20 9,1 18,9 30,17 2,4 ,67 5,88 19:00:00 N E 1020,2 84,8
22/2/2008 10,2 16,4 15:50 5,9 2:40 5,9 16,8 25,95 0,0 1,11 7,76 16:30:00 N S 1029, 74,9
23/2/2008 10,3 16,5 14:30 5,1 7:0 6,2 16,9 26,33 0,0 1,10 6,70 15:10:00 NE N 1027,6 75,8
24/2/2008 9,6 10,4 16:20 8,9 10:30 8,3 17,2 30,13 15,4 ,78 6,10 17:10:00 N NE 1023, 91,9
25/2/2008 12, 16,9 15:20 9,6 6:40 8,9 20, 29,65 0,1 ,40 3,94 16:00:00 N E 1021,9 81,6
26/2/2008 14,3 22,4 16:0 8,9 8:20 9,5 21, 29,53 0,1 ,52 3,70 13:20:00 NE SE 1021,7 73,2
27/2/2008 15,3 21,8 16:40 8,9 2:20 7,8 20,4 27,12 0,0 1,13 6,52 5:00:00 S S 1020,9 61,1
28/2/2008 13,1 19,3 15:10 9,6 8:40 8,6 19,6 28,68 2,6 ,75 7,40 17:40:00 N SE 1021, 74,4